createdAt,value
2022-11-27T00:05:04.607Z,100.00
2022-11-27T00:10:09.398Z,100.00
2022-11-27T00:15:17.100Z,100.00
2022-11-27T00:20:25.064Z,100.00
2022-11-27T00:25:32.460Z,100.00
2022-11-27T00:30:35.950Z,100.00
2022-11-27T00:35:41.212Z,100.00
2022-11-27T00:40:44.738Z,100.00
2022-11-27T00:45:50.218Z,100.00
2022-11-27T00:51:00.123Z,100.00
2022-11-27T00:56:04.584Z,100.00
2022-11-27T01:01:08.998Z,100.00
2022-11-27T01:06:14.747Z,100.00
2022-11-27T01:11:20.324Z,100.00
2022-11-27T01:16:25.827Z,100.00
2022-11-27T01:21:32.932Z,100.00
2022-11-27T01:26:36.473Z,100.00
2022-11-27T01:31:40.440Z,100.00
2022-11-27T01:36:46.271Z,100.00
2022-11-27T01:41:50.100Z,100.00
2022-11-27T01:46:56.447Z,100.00
2022-11-27T01:52:04.610Z,100.00
2022-11-27T01:57:13.245Z,100.00
2022-11-27T02:02:17.027Z,100.00
2022-11-27T02:07:22.440Z,100.00
2022-11-27T02:12:29.139Z,100.00
2022-11-27T02:17:40.488Z,100.00
2022-11-27T02:23:01.103Z,100.00
2022-11-27T02:28:22.596Z,100.00
2022-11-27T02:33:29.191Z,100.00
2022-11-27T02:38:36.549Z,100.00
2022-11-27T02:43:44.195Z,100.00
2022-11-27T02:48:51.743Z,100.00
2022-11-27T02:54:00.322Z,100.00
2022-11-27T02:59:07.617Z,100.00
2022-11-27T03:04:15.813Z,100.00
2022-11-27T03:09:23.534Z,100.00
2022-11-27T03:14:27.579Z,100.00
2022-11-27T03:19:40.457Z,100.00
2022-11-27T03:24:44.099Z,100.00
2022-11-27T03:29:51.084Z,100.00
2022-11-27T03:34:56.488Z,100.00
2022-11-27T03:40:00.033Z,100.00
2022-11-27T03:45:11.747Z,100.00
2022-11-27T03:50:28.697Z,100.00
2022-11-27T03:55:43.397Z,100.00
2022-11-27T04:00:51.869Z,100.00
2022-11-27T04:05:57.119Z,100.00
2022-11-27T04:11:00.694Z,100.00
2022-11-27T04:16:05.047Z,100.00
2022-11-27T04:21:10.119Z,100.00
2022-11-27T04:26:13.766Z,100.00
2022-11-27T04:31:17.432Z,100.00
2022-11-27T04:36:22.507Z,100.00
2022-11-27T04:41:26.062Z,100.00
2022-11-27T04:46:29.679Z,100.00
2022-11-27T04:51:34.860Z,100.00
2022-11-27T04:56:38.283Z,100.00
2022-11-27T05:01:41.790Z,100.00
2022-11-27T05:06:46.669Z,100.00
2022-11-27T05:11:50.151Z,100.00
2022-11-27T05:16:56.028Z,100.00
2022-11-27T05:22:00.959Z,100.00
2022-11-27T05:27:04.579Z,100.00
2022-11-27T05:32:08.457Z,100.00
2022-11-27T05:37:18.006Z,100.00
2022-11-27T05:42:23.223Z,100.00
2022-11-27T05:47:26.980Z,100.00
2022-11-27T05:52:31.797Z,100.00
2022-11-27T05:57:35.377Z,100.00
2022-11-27T06:02:39.154Z,100.00
2022-11-27T06:07:44.171Z,100.00
2022-11-27T06:12:47.901Z,100.00
2022-11-27T06:17:51.774Z,100.00
2022-11-27T06:22:57.403Z,100.00
2022-11-27T06:28:01.003Z,100.00
2022-11-27T06:33:04.543Z,100.00
2022-11-27T06:38:09.636Z,100.00
2022-11-27T06:43:13.160Z,100.00
2022-11-27T06:48:16.742Z,100.00
2022-11-27T06:53:21.662Z,100.00
2022-11-27T06:58:30.851Z,100.00
2022-11-27T07:03:34.861Z,100.00
2022-11-27T07:08:40.048Z,100.00
2022-11-27T07:13:43.748Z,100.00
2022-11-27T07:18:49.620Z,100.00
2022-11-27T07:23:56.523Z,100.00
2022-11-27T07:29:05.439Z,100.00
2022-11-27T07:34:15.043Z,100.00
2022-11-27T07:39:39.438Z,100.00
2022-11-27T07:44:46.185Z,100.00
2022-11-27T07:49:51.677Z,100.00
2022-11-27T07:54:57.697Z,100.00
2022-11-27T08:00:02.122Z,100.00
2022-11-27T08:05:12.703Z,100.00
2022-11-27T08:10:21.373Z,100.00
2022-11-27T08:15:25.673Z,100.00
2022-11-27T08:20:32.693Z,100.00
2022-11-27T08:25:39.457Z,100.00
2022-11-27T08:30:43.875Z,100.00
2022-11-27T08:35:49.871Z,100.00
2022-11-27T08:41:00.347Z,100.00
2022-11-27T08:46:08.423Z,100.00
2022-11-27T08:51:14.713Z,100.00
2022-11-27T08:56:21.849Z,100.00
2022-11-27T09:01:27.800Z,100.00
2022-11-27T09:06:33.652Z,100.00
2022-11-27T09:11:39.230Z,100.00
2022-11-27T09:16:43.732Z,100.00
2022-11-27T09:21:47.284Z,100.00
2022-11-27T09:26:52.814Z,100.00
2022-11-27T09:31:56.604Z,100.00
2022-11-27T09:37:00.320Z,100.00
2022-11-27T09:42:09.730Z,100.00
2022-11-27T09:47:19.541Z,100.00
2022-11-27T09:52:28.160Z,100.00
2022-11-27T09:57:38.892Z,100.00
2022-11-27T10:02:45.270Z,100.00
2022-11-27T10:08:09.943Z,100.00
2022-11-27T10:13:26.360Z,100.00
2022-11-27T10:18:36.571Z,100.00
2022-11-27T10:23:49.089Z,100.00
2022-11-27T10:29:02.030Z,100.00
2022-11-27T10:34:18.877Z,100.00
2022-11-27T10:39:33.753Z,100.00
2022-11-27T10:44:43.428Z,99.03
2022-11-27T10:49:48.974Z,95.89
2022-11-27T10:54:59.149Z,95.25
2022-11-27T11:00:11.059Z,95.46
2022-11-27T11:05:37.669Z,92.93
2022-11-27T11:10:51.359Z,91.27
2022-11-27T11:15:59.385Z,93.11
2022-11-27T11:21:09.507Z,88.96
2022-11-27T11:26:26.084Z,91.24
2022-11-27T11:31:35.857Z,94.16
2022-11-27T11:36:39.701Z,94.76
2022-11-27T11:41:47.255Z,98.15
2022-11-27T11:46:55.627Z,98.14
2022-11-27T11:52:21.940Z,99.11
2022-11-27T11:57:52.441Z,97.34
2022-11-27T12:03:16.066Z,96.33
2022-11-27T12:08:43.526Z,94.77
2022-11-27T12:14:04.843Z,92.60
2022-11-27T12:19:36.183Z,94.71
2022-11-27T12:24:53.441Z,93.78
2022-11-27T12:30:10.867Z,92.69
2022-11-27T12:35:31.952Z,91.65
2022-11-27T12:40:51.386Z,93.29
2022-11-27T12:46:03.524Z,88.79
2022-11-27T12:51:27.410Z,86.71
2022-11-27T12:56:38.276Z,87.98
2022-11-27T13:01:46.800Z,89.48
2022-11-27T13:07:00.003Z,90.24
2022-11-27T13:12:06.048Z,88.71
2022-11-27T13:17:17.160Z,89.59
2022-11-27T13:22:35.225Z,94.78
2022-11-27T13:27:40.200Z,88.10
2022-11-27T13:32:50.361Z,90.71
2022-11-27T13:38:06.062Z,80.28
2022-11-27T13:43:23.931Z,85.54
2022-11-27T13:48:33.958Z,84.70
2022-11-27T13:53:41.970Z,77.99
2022-11-27T13:58:45.895Z,81.39
2022-11-27T14:03:50.344Z,74.93
2022-11-27T14:09:03.255Z,78.50
2022-11-27T14:14:21.101Z,79.89
2022-11-27T14:19:33.644Z,76.87
2022-11-27T14:24:44.978Z,76.93
2022-11-27T14:29:52.251Z,75.94
2022-11-27T14:34:55.924Z,74.60
2022-11-27T14:40:02.393Z,79.07
2022-11-27T14:45:15.361Z,81.98
2022-11-27T14:50:24.346Z,82.06
2022-11-27T14:55:34.857Z,85.51
2022-11-27T15:00:41.995Z,86.33
2022-11-27T15:05:54.027Z,92.06
2022-11-27T15:11:01.385Z,91.03
2022-11-27T15:16:15.285Z,95.19
2022-11-27T15:21:25.603Z,95.10
2022-11-27T15:26:35.213Z,92.37
2022-11-27T15:31:48.866Z,94.19
2022-11-27T15:36:59.889Z,93.83
2022-11-27T15:42:11.375Z,94.72
2022-11-27T15:47:24.337Z,94.94
2022-11-27T15:52:30.176Z,88.14
2022-11-27T15:57:35.842Z,89.63
2022-11-27T16:02:39.744Z,93.04
2022-11-27T16:07:54.713Z,93.10
2022-11-27T16:13:00.343Z,96.22
2022-11-27T16:18:08.343Z,99.88
2022-11-27T16:23:13.202Z,97.58
2022-11-27T16:28:18.361Z,96.20
2022-11-27T16:33:26.504Z,97.06
2022-11-27T16:38:30.873Z,97.17
2022-11-27T16:43:39.133Z,95.62
2022-11-27T16:48:45.287Z,96.47
2022-11-27T16:53:50.751Z,95.54
2022-11-27T16:59:02.782Z,99.71
2022-11-27T17:04:11.874Z,96.60
2022-11-27T17:09:16.544Z,95.83
2022-11-27T17:14:22.544Z,90.44
2022-11-27T17:19:27.231Z,87.67
2022-11-27T17:24:31.271Z,86.21
2022-11-27T17:29:38.098Z,93.03
2022-11-27T17:34:42.528Z,92.83
2022-11-27T17:39:46.116Z,90.46
2022-11-27T17:44:51.619Z,91.79
2022-11-27T17:49:57.012Z,80.26
2022-11-27T17:55:00.678Z,78.08
2022-11-27T18:00:09.016Z,78.40
2022-11-27T18:05:24.195Z,79.48
2022-11-27T18:10:32.236Z,83.28
2022-11-27T18:15:37.728Z,85.78
2022-11-27T18:20:41.437Z,86.12
2022-11-27T18:25:48.947Z,85.53
2022-11-27T18:30:54.484Z,83.27
2022-11-27T18:36:01.652Z,86.83
2022-11-27T18:41:13.545Z,89.36
2022-11-27T18:46:21.187Z,92.96
2022-11-27T18:51:26.628Z,91.09
2022-11-27T18:56:38.059Z,86.53
2022-11-27T19:01:43.820Z,86.32
2022-11-27T19:06:47.620Z,87.78
2022-11-27T19:11:51.192Z,85.57
2022-11-27T19:16:58.553Z,83.28
2022-11-27T19:22:02.237Z,81.00
2022-11-27T19:27:05.983Z,80.26
2022-11-27T19:32:12.208Z,83.07
2022-11-27T19:37:33.938Z,80.84
2022-11-27T19:42:39.063Z,82.36
2022-11-27T19:47:44.104Z,85.25
2022-11-27T19:52:48.314Z,85.21
2022-11-27T19:57:52.218Z,85.28
2022-11-27T20:02:58.994Z,91.27
2022-11-27T20:08:02.924Z,87.19
2022-11-27T20:13:07.514Z,86.92
2022-11-27T20:18:13.002Z,88.38
2022-11-27T20:23:18.614Z,90.05
2022-11-27T20:28:25.165Z,90.14
2022-11-27T20:33:36.235Z,92.06
2022-11-27T20:38:41.780Z,92.39
2022-11-27T20:43:46.299Z,93.53
2022-11-27T20:48:54.295Z,91.56
2022-11-27T20:53:59.450Z,92.93
2022-11-27T20:59:04.910Z,91.50
2022-11-27T21:04:19.459Z,90.85
2022-11-27T21:09:24.349Z,94.53
2022-11-27T21:14:28.793Z,93.42
2022-11-27T21:19:33.795Z,93.33
2022-11-27T21:24:37.659Z,92.97
2022-11-27T21:29:41.693Z,93.67
2022-11-27T21:34:47.196Z,92.34
2022-11-27T21:39:51.620Z,95.52
2022-11-27T21:44:55.543Z,93.82
2022-11-27T21:50:01.300Z,92.24
2022-11-27T21:55:12.011Z,89.78
2022-11-27T22:00:17.059Z,89.45
2022-11-27T22:05:22.460Z,90.06
2022-11-27T22:10:27.888Z,89.54
2022-11-27T22:15:31.881Z,94.06
2022-11-27T22:20:37.146Z,92.62
2022-11-27T22:25:40.913Z,93.60
2022-11-27T22:30:47.417Z,95.94
2022-11-27T22:35:52.435Z,90.75
2022-11-27T22:41:01.829Z,92.45
2022-11-27T22:46:06.440Z,92.98
2022-11-27T22:51:12.215Z,93.65
2022-11-27T22:56:15.795Z,96.38
2022-11-27T23:01:22.682Z,97.84
2022-11-27T23:06:28.148Z,97.82
2022-11-27T23:11:31.989Z,93.69
2022-11-27T23:16:35.867Z,88.38
2022-11-27T23:21:41.084Z,84.74
2022-11-27T23:26:45.867Z,82.94
2022-11-27T23:31:49.749Z,81.35
2022-11-27T23:36:54.819Z,81.38
2022-11-27T23:41:58.667Z,87.49
2022-11-27T23:47:02.437Z,82.82
2022-11-27T23:52:07.580Z,84.57
2022-11-27T23:57:11.500Z,83.71
